createdAt,value
2019-04-28T00:01:38.579Z,6.02
2019-04-28T00:04:09.121Z,5.99
2019-04-28T00:06:39.448Z,5.93
2019-04-28T00:09:11.588Z,5.84
2019-04-28T00:11:41.872Z,5.81
2019-04-28T00:14:12.690Z,5.80
2019-04-28T00:16:43.364Z,5.83
2019-04-28T00:19:16.988Z,5.90
2019-04-28T00:21:57.234Z,5.81
2019-04-28T00:24:46.558Z,5.73
2019-04-28T00:27:18.346Z,5.74
2019-04-28T00:29:49.574Z,5.79
2019-04-28T00:32:22.177Z,5.74
2019-04-28T00:34:52.530Z,5.67
2019-04-28T00:37:32.002Z,5.83
2019-04-28T00:40:02.430Z,5.69
2019-04-28T00:42:32.746Z,5.62
2019-04-28T00:45:03.328Z,5.54
2019-04-28T00:47:35.263Z,5.62
2019-04-28T00:50:11.751Z,5.60
2019-04-28T00:52:42.539Z,5.56
2019-04-28T00:55:13.035Z,5.57
2019-04-28T00:57:43.424Z,5.59
2019-04-28T01:00:16.816Z,5.60
2019-04-28T01:02:47.458Z,5.64
2019-04-28T01:05:21.202Z,5.48
2019-04-28T01:07:54.384Z,5.41
2019-04-28T01:10:30.805Z,5.38
2019-04-28T01:13:02.314Z,5.34
2019-04-28T01:15:42.865Z,5.31
2019-04-28T01:18:32.920Z,5.26
2019-04-28T01:21:03.638Z,5.28
2019-04-28T01:23:33.963Z,5.27
2019-04-28T01:26:04.493Z,5.36
2019-04-28T01:28:34.809Z,5.22
2019-04-28T01:31:36.452Z,5.25
2019-04-28T01:34:15.837Z,5.11
2019-04-28T01:36:46.206Z,5.05
2019-04-28T01:39:16.519Z,5.05
2019-04-28T01:41:46.857Z,4.95
2019-04-28T01:44:19.831Z,4.93
2019-04-28T01:46:52.526Z,4.90
2019-04-28T01:49:22.872Z,4.92
2019-04-28T01:52:00.889Z,4.86
2019-04-28T01:54:32.536Z,4.84
2019-04-28T01:57:03.329Z,4.83
2019-04-28T01:59:35.460Z,4.74
2019-04-28T02:02:10.007Z,4.79
2019-04-28T02:04:40.451Z,4.59
2019-04-28T02:07:11.181Z,4.64
2019-04-28T02:09:41.968Z,4.58
2019-04-28T02:12:12.404Z,4.54
2019-04-28T02:14:42.714Z,4.47
2019-04-28T02:17:13.075Z,4.42
2019-04-28T02:19:43.385Z,4.44
2019-04-28T02:22:29.920Z,4.35
2019-04-28T02:25:02.221Z,4.28
2019-04-28T02:27:36.918Z,4.23
2019-04-28T02:30:11.386Z,4.24
2019-04-28T02:32:41.919Z,4.19
2019-04-28T02:35:12.327Z,4.29
2019-04-28T02:37:42.976Z,4.22
2019-04-28T02:40:13.274Z,4.19
2019-04-28T02:42:43.765Z,4.22
2019-04-28T02:45:21.833Z,4.30
2019-04-28T02:47:53.151Z,4.37
2019-04-28T02:50:35.419Z,4.19
2019-04-28T02:53:17.799Z,4.07
2019-04-28T02:55:48.209Z,3.96
2019-04-28T02:58:22.474Z,4.26
2019-04-28T03:01:02.822Z,4.31
2019-04-28T03:03:42.961Z,4.25
2019-04-28T03:06:14.231Z,4.12
2019-04-28T03:08:45.018Z,4.12
2019-04-28T03:11:15.337Z,4.06
2019-04-28T03:13:45.684Z,4.12
2019-04-28T03:16:16.239Z,4.20
2019-04-28T03:18:51.421Z,4.10
2019-04-28T03:21:22.001Z,4.08
2019-04-28T03:23:52.344Z,4.14
2019-04-28T03:26:33.218Z,4.07
2019-04-28T03:29:10.871Z,4.06
2019-04-28T03:32:22.048Z,4.02
2019-04-28T03:34:45.444Z,4.06
2019-04-28T03:37:25.141Z,4.06
2019-04-28T03:39:55.480Z,4.06
2019-04-28T03:42:25.809Z,4.19
2019-04-28T03:45:00.997Z,4.20
2019-04-28T03:47:32.273Z,4.20
2019-04-28T03:50:02.557Z,4.22
2019-04-28T03:52:32.874Z,4.28
2019-04-28T03:55:05.798Z,4.33
2019-04-28T03:57:36.261Z,4.44
2019-04-28T04:00:10.852Z,4.48
2019-04-28T04:02:41.231Z,4.51
2019-04-28T04:05:12.965Z,4.60
2019-04-28T04:07:44.116Z,4.65
2019-04-28T04:10:50.152Z,4.73
2019-04-28T04:13:33.067Z,4.78
2019-04-28T04:16:23.564Z,4.88
2019-04-28T04:18:55.384Z,4.96
2019-04-28T04:21:25.670Z,5.10
2019-04-28T04:23:56.343Z,5.20
2019-04-28T04:26:26.958Z,5.25
2019-04-28T04:29:00.709Z,5.34
2019-04-28T04:31:31.839Z,5.49
2019-04-28T04:34:03.265Z,5.60
2019-04-28T04:36:35.063Z,5.68
2019-04-28T04:39:10.808Z,5.86
2019-04-28T04:41:43.783Z,5.95
2019-04-28T04:44:15.424Z,6.14
2019-04-28T04:46:45.778Z,6.32
2019-04-28T04:49:16.106Z,6.45
2019-04-28T04:51:46.373Z,6.71
2019-04-28T04:54:20.441Z,6.89
2019-04-28T04:56:55.029Z,7.02
2019-04-28T04:59:30.055Z,7.17
2019-04-28T05:02:29.305Z,7.50
2019-04-28T05:05:11.802Z,7.68
2019-04-28T05:07:42.932Z,8.05
2019-04-28T05:10:13.716Z,8.41
2019-04-28T05:12:44.030Z,8.66
2019-04-28T05:15:14.637Z,8.94
2019-04-28T05:17:45.427Z,9.29
2019-04-28T05:20:15.780Z,9.60
2019-04-28T05:22:54.598Z,9.85
2019-04-28T05:25:32.589Z,10.10
2019-04-28T05:28:03.466Z,10.38
2019-04-28T05:30:34.942Z,10.56
2019-04-28T05:33:07.718Z,10.76
2019-04-28T05:35:40.193Z,10.81
2019-04-28T05:38:10.530Z,11.18
2019-04-28T05:40:42.075Z,11.86
2019-04-28T05:43:12.548Z,12.48
2019-04-28T05:45:45.106Z,13.16
2019-04-28T05:48:20.218Z,14.29
2019-04-28T05:50:59.939Z,15.26
2019-04-28T05:53:53.804Z,16.13
2019-04-28T05:56:36.038Z,16.82
2019-04-28T05:59:11.016Z,16.80
2019-04-28T06:02:00.732Z,17.25
2019-04-28T06:04:31.450Z,17.37
2019-04-28T06:07:09.974Z,16.36
2019-04-28T06:09:45.766Z,16.05
2019-04-28T06:12:16.959Z,16.49
2019-04-28T06:14:50.238Z,16.72
2019-04-28T06:17:20.826Z,17.16
2019-04-28T06:19:51.186Z,17.24
2019-04-28T06:22:23.843Z,17.36
2019-04-28T06:24:54.198Z,17.57
2019-04-28T06:27:24.598Z,17.59
2019-04-28T06:29:55.912Z,17.74
2019-04-28T06:32:27.043Z,17.10
2019-04-28T06:34:57.213Z,17.70
2019-04-28T06:37:27.709Z,16.72
2019-04-28T06:39:58.150Z,16.71
2019-04-28T06:42:28.486Z,16.23
2019-04-28T06:44:59.135Z,16.33
2019-04-28T06:47:30.379Z,16.76
2019-04-28T06:50:00.739Z,16.91
2019-04-28T06:52:33.309Z,16.77
2019-04-28T06:55:03.788Z,17.12
2019-04-28T06:57:34.180Z,16.71
2019-04-28T07:00:08.708Z,16.53
2019-04-28T07:02:39.054Z,16.39
2019-04-28T07:05:12.001Z,16.63
2019-04-28T07:07:44.940Z,17.40
2019-04-28T07:10:15.271Z,17.59
2019-04-28T07:12:45.680Z,18.01
2019-04-28T07:15:17.466Z,18.10
2019-04-28T07:17:47.877Z,17.84
2019-04-28T07:20:35.378Z,17.95
2019-04-28T07:23:05.759Z,17.90
2019-04-28T07:25:36.438Z,19.18
2019-04-28T07:28:07.251Z,17.38
2019-04-28T07:30:39.725Z,17.55
2019-04-28T07:33:10.750Z,17.37
2019-04-28T07:35:41.217Z,17.08
2019-04-28T07:38:11.544Z,17.93
2019-04-28T07:40:44.292Z,18.54
2019-04-28T07:43:14.703Z,18.99
2019-04-28T07:45:46.811Z,19.10
2019-04-28T07:48:18.332Z,19.42
2019-04-28T07:50:50.300Z,19.15
2019-04-28T07:53:39.706Z,18.47
2019-04-28T07:56:10.256Z,17.92
2019-04-28T07:58:42.776Z,17.58
2019-04-28T08:01:13.557Z,17.07
2019-04-28T08:03:49.550Z,16.50
2019-04-28T08:06:16.316Z,16.69
2019-04-28T08:08:46.732Z,17.17
2019-04-28T08:11:17.531Z,16.94
2019-04-28T08:13:48.050Z,16.48
2019-04-28T08:16:18.402Z,17.54
2019-04-28T08:18:48.860Z,18.00
2019-04-28T08:21:19.315Z,18.33
2019-04-28T08:23:49.730Z,19.15
2019-04-28T08:26:20.186Z,18.64
2019-04-28T08:28:50.512Z,18.52
2019-04-28T08:31:24.180Z,18.57
2019-04-28T08:34:08.084Z,18.55
2019-04-28T08:36:40.822Z,18.75
2019-04-28T08:39:11.763Z,18.87
2019-04-28T08:41:45.257Z,18.60
2019-04-28T08:44:18.692Z,19.11
2019-04-28T08:46:49.402Z,20.27
2019-04-28T08:49:21.928Z,19.92
2019-04-28T08:51:52.258Z,21.38
2019-04-28T08:54:22.667Z,20.17
2019-04-28T08:56:53.184Z,19.67
2019-04-28T08:59:23.599Z,18.92
2019-04-28T09:01:55.524Z,19.46
2019-04-28T09:04:27.853Z,20.55
2019-04-28T09:07:02.314Z,19.90
2019-04-28T09:09:32.650Z,19.20
2019-04-28T09:12:04.216Z,19.52
2019-04-28T09:14:34.656Z,19.67
2019-04-28T09:17:08.671Z,20.41
2019-04-28T09:19:42.524Z,20.49
2019-04-28T09:22:13.150Z,20.62
2019-04-28T09:24:43.505Z,21.31
2019-04-28T09:27:15.559Z,22.01
2019-04-28T09:29:46.097Z,21.47
2019-04-28T09:32:16.469Z,21.54
2019-04-28T09:34:48.847Z,22.46
2019-04-28T09:37:20.274Z,22.53
2019-04-28T09:39:57.914Z,21.49
2019-04-28T09:42:48.155Z,21.99
2019-04-28T09:45:29.739Z,22.18
2019-04-28T09:48:05.848Z,22.31
2019-04-28T09:50:36.285Z,22.71
2019-04-28T09:53:09.061Z,22.51
2019-04-28T09:55:43.116Z,22.66
2019-04-28T09:58:13.915Z,22.42
2019-04-28T10:00:44.301Z,21.93
2019-04-28T10:03:14.661Z,22.24
2019-04-28T10:05:45.378Z,21.88
2019-04-28T10:08:17.630Z,21.01
2019-04-28T10:10:49.621Z,21.41
2019-04-28T10:13:19.970Z,22.81
2019-04-28T10:15:52.063Z,23.52
2019-04-28T10:18:23.833Z,22.78
2019-04-28T10:21:04.600Z,22.35
2019-04-28T10:23:36.547Z,22.35
2019-04-28T10:26:09.719Z,21.86
2019-04-28T10:28:40.225Z,23.25
2019-04-28T10:31:13.330Z,23.33
2019-04-28T10:33:45.632Z,22.45
2019-04-28T10:36:19.222Z,21.21
2019-04-28T10:38:51.181Z,22.33
2019-04-28T10:41:33.244Z,22.12
2019-04-28T10:44:03.785Z,21.59
2019-04-28T10:46:36.657Z,22.44
2019-04-28T10:49:08.628Z,22.29
2019-04-28T10:51:38.958Z,22.26
2019-04-28T10:54:10.392Z,22.05
2019-04-28T10:56:40.769Z,22.06
2019-04-28T10:59:12.354Z,22.38
2019-04-28T11:01:42.681Z,22.17
2019-04-28T11:04:34.021Z,22.04
2019-04-28T11:07:05.092Z,22.06
2019-04-28T11:09:43.098Z,22.37
2019-04-28T11:12:22.696Z,22.95
2019-04-28T11:14:53.788Z,22.75
2019-04-28T11:17:25.772Z,22.48
2019-04-28T11:19:56.100Z,23.66
2019-04-28T11:22:29.182Z,22.02
2019-04-28T11:24:59.538Z,21.44
2019-04-28T11:27:30.114Z,21.27
2019-04-28T11:30:00.502Z,21.43
2019-04-28T11:32:34.286Z,21.40
2019-04-28T11:35:21.983Z,20.83
2019-04-28T11:37:52.906Z,20.82
2019-04-28T11:40:23.973Z,22.80
2019-04-28T11:42:54.378Z,23.34
2019-04-28T11:45:25.822Z,23.68
2019-04-28T11:47:56.240Z,24.89
2019-04-28T11:50:26.991Z,25.55
2019-04-28T11:53:04.434Z,26.44
2019-04-28T11:55:36.823Z,24.59
2019-04-28T11:58:11.448Z,21.29
2019-04-28T12:00:41.899Z,21.76
2019-04-28T12:03:14.606Z,22.56
2019-04-28T12:05:47.076Z,22.37
2019-04-28T12:08:17.779Z,23.17
2019-04-28T12:10:54.318Z,22.45
2019-04-28T12:13:38.959Z,22.30
2019-04-28T12:16:29.848Z,22.54
2019-04-28T12:19:27.059Z,22.16
2019-04-28T12:21:57.423Z,21.83
2019-04-28T12:24:28.390Z,21.73
2019-04-28T12:27:00.881Z,22.74
2019-04-28T12:29:31.234Z,23.61
2019-04-28T12:32:02.653Z,23.75
2019-04-28T12:34:34.097Z,23.26
2019-04-28T12:37:05.000Z,22.97
2019-04-28T12:39:36.231Z,23.56
2019-04-28T12:42:06.653Z,23.39
2019-04-28T12:44:36.977Z,21.73
2019-04-28T12:47:17.212Z,21.73
2019-04-28T12:49:55.317Z,20.95
2019-04-28T12:52:25.940Z,21.87
2019-04-28T12:54:56.358Z,20.66
2019-04-28T12:57:28.010Z,20.01
2019-04-28T13:00:07.897Z,20.56
2019-04-28T13:02:56.288Z,20.85
2019-04-28T13:05:26.651Z,19.80
2019-04-28T13:08:00.204Z,19.47
2019-04-28T13:10:30.609Z,20.14
2019-04-28T13:13:04.023Z,20.48
2019-04-28T13:15:36.112Z,20.84
2019-04-28T13:18:07.309Z,19.27
2019-04-28T13:20:37.891Z,19.17
2019-04-28T13:23:08.244Z,19.81
2019-04-28T13:25:39.394Z,19.96
2019-04-28T13:28:09.977Z,20.11
2019-04-28T13:30:42.301Z,19.50
2019-04-28T13:33:13.016Z,18.36
2019-04-28T13:35:43.662Z,18.88
2019-04-28T13:38:14.011Z,18.52
2019-04-28T13:40:44.316Z,18.98
2019-04-28T13:43:15.415Z,19.50
2019-04-28T13:45:45.757Z,19.40
2019-04-28T13:48:16.508Z,18.17
2019-04-28T13:50:49.641Z,18.28
2019-04-28T13:53:20.861Z,17.58
2019-04-28T13:56:10.063Z,17.57
2019-04-28T13:58:44.881Z,18.97
2019-04-28T14:01:36.317Z,17.43
2019-04-28T14:04:25.776Z,17.82
2019-04-28T14:07:02.891Z,17.86
2019-04-28T14:09:33.237Z,16.81
2019-04-28T14:12:04.800Z,16.88
2019-04-28T14:14:35.111Z,16.97
2019-04-28T14:17:05.424Z,17.02
2019-04-28T14:19:35.692Z,16.51
2019-04-28T14:22:08.391Z,17.33
2019-04-28T14:24:40.112Z,16.67
2019-04-28T14:27:12.832Z,17.42
2019-04-28T14:29:43.385Z,17.96
2019-04-28T14:32:14.681Z,18.32
2019-04-28T14:34:46.501Z,19.14
2019-04-28T14:37:16.849Z,18.62
2019-04-28T14:39:49.629Z,17.79
2019-04-28T14:42:22.737Z,16.03
2019-04-28T14:44:56.445Z,15.50
2019-04-28T14:47:26.805Z,15.71
2019-04-28T14:49:57.119Z,14.87
2019-04-28T14:52:27.453Z,14.84
2019-04-28T14:54:58.228Z,14.34
2019-04-28T14:57:28.851Z,14.85
2019-04-28T14:59:59.193Z,16.28
2019-04-28T15:02:53.679Z,16.78
2019-04-28T15:05:33.193Z,17.20
2019-04-28T15:08:22.802Z,16.91
2019-04-28T15:10:59.301Z,17.33
2019-04-28T15:13:31.616Z,17.93
2019-04-28T15:16:02.447Z,16.67
2019-04-28T15:18:33.211Z,16.33
2019-04-28T15:21:04.575Z,15.95
2019-04-28T15:23:36.258Z,16.48
2019-04-28T15:26:06.582Z,15.33
2019-04-28T15:28:37.363Z,13.73
2019-04-28T15:31:08.102Z,13.44
2019-04-28T15:33:38.440Z,12.95
2019-04-28T15:36:08.864Z,12.43
2019-04-28T15:38:39.277Z,12.66
2019-04-28T15:41:20.852Z,13.56
2019-04-28T15:43:42.194Z,13.87
2019-04-28T15:46:12.534Z,14.46
2019-04-28T15:48:42.875Z,13.68
2019-04-28T15:51:13.440Z,13.77
2019-04-28T15:53:52.118Z,13.39
2019-04-28T15:56:46.601Z,13.53
2019-04-28T15:59:17.894Z,13.21
2019-04-28T16:01:48.619Z,13.41
2019-04-28T16:04:19.250Z,13.08
2019-04-28T16:06:49.622Z,13.12
2019-04-28T16:09:23.068Z,13.24
2019-04-28T16:11:54.531Z,13.00
2019-04-28T16:14:25.089Z,12.73
2019-04-28T16:16:55.515Z,12.49
2019-04-28T16:19:26.232Z,12.46
2019-04-28T16:22:11.843Z,12.73
2019-04-28T16:24:44.981Z,12.49
2019-04-28T16:27:15.612Z,12.57
2019-04-28T16:29:45.776Z,12.19
2019-04-28T16:32:17.636Z,11.69
2019-04-28T16:34:47.959Z,11.75
2019-04-28T16:37:18.576Z,11.77
2019-04-28T16:39:50.524Z,11.61
2019-04-28T16:42:22.923Z,11.38
2019-04-28T16:44:54.245Z,10.97
2019-04-28T16:47:24.516Z,10.58
2019-04-28T16:49:57.642Z,10.45
2019-04-28T16:52:27.965Z,10.28
2019-04-28T16:55:15.097Z,9.97
2019-04-28T16:58:12.043Z,9.76
2019-04-28T17:01:07.114Z,9.55
2019-04-28T17:03:38.185Z,9.48
2019-04-28T17:06:08.461Z,9.21
2019-04-28T17:08:39.139Z,9.08
2019-04-28T17:11:10.889Z,8.98
2019-04-28T17:13:41.947Z,8.97
2019-04-28T17:16:12.273Z,8.86
2019-04-28T17:18:42.626Z,8.76
2019-04-28T17:21:12.939Z,8.77
2019-04-28T17:23:44.298Z,8.67
2019-04-28T17:26:14.679Z,8.48
2019-04-28T17:28:46.188Z,8.38
2019-04-28T17:31:17.268Z,8.29
2019-04-28T17:33:47.892Z,8.15
2019-04-28T17:36:18.257Z,8.04
2019-04-28T17:38:48.594Z,7.94
2019-04-28T17:41:19.259Z,7.88
2019-04-28T17:43:49.535Z,7.82
2019-04-28T17:46:20.793Z,7.74
2019-04-28T17:48:55.638Z,7.67
2019-04-28T17:51:28.511Z,7.58
2019-04-28T17:53:59.833Z,7.53
2019-04-28T17:56:30.626Z,7.53
2019-04-28T17:59:00.963Z,7.43
2019-04-28T18:01:59.091Z,7.37
2019-04-28T18:04:43.838Z,7.27
2019-04-28T18:07:19.350Z,7.22
2019-04-28T18:09:52.477Z,7.09
2019-04-28T18:12:26.887Z,7.02
2019-04-28T18:15:03.072Z,6.97
2019-04-28T18:17:57.261Z,6.82
2019-04-28T18:20:27.953Z,6.83
2019-04-28T18:22:59.814Z,6.69
2019-04-28T18:25:30.467Z,6.63
2019-04-28T18:28:01.108Z,6.45
2019-04-28T18:30:35.687Z,6.33
2019-04-28T18:33:43.110Z,6.39
2019-04-28T18:36:22.521Z,6.32
2019-04-28T18:39:06.958Z,6.21
2019-04-28T18:41:46.711Z,6.10
2019-04-28T18:44:19.658Z,6.02
2019-04-28T18:46:50.124Z,5.92
2019-04-28T18:49:20.408Z,5.79
2019-04-28T18:51:52.253Z,5.77
2019-04-28T18:54:22.592Z,5.69
2019-04-28T18:56:57.654Z,5.67
2019-04-28T18:59:28.059Z,5.48
2019-04-28T19:02:13.144Z,5.25
2019-04-28T19:04:43.446Z,5.11
2019-04-28T19:07:21.676Z,5.06
2019-04-28T19:10:16.966Z,4.98
2019-04-28T19:13:11.468Z,4.79
2019-04-28T19:15:59.988Z,4.90
2019-04-28T19:18:36.258Z,4.92
2019-04-28T19:21:08.497Z,5.04
2019-04-28T19:23:39.585Z,4.90
2019-04-28T19:26:09.872Z,4.95
2019-04-28T19:28:40.507Z,4.93
2019-04-28T19:31:13.046Z,4.95
2019-04-28T19:33:43.724Z,4.94
2019-04-28T19:36:16.118Z,4.75
2019-04-28T19:38:46.679Z,4.59
2019-04-28T19:41:17.366Z,4.36
2019-04-28T19:43:47.684Z,4.11
2019-04-28T19:46:19.529Z,3.97
2019-04-28T19:48:52.189Z,4.15
2019-04-28T19:51:31.751Z,3.87
2019-04-28T19:53:54.458Z,3.72
2019-04-28T19:56:39.625Z,3.49
2019-04-28T19:59:17.320Z,3.28
2019-04-28T20:01:47.871Z,3.11
2019-04-28T20:04:21.916Z,2.95
2019-04-28T20:06:53.302Z,2.80
2019-04-28T20:09:23.595Z,2.71
2019-04-28T20:11:53.893Z,2.57
2019-04-28T20:14:25.934Z,2.58
2019-04-28T20:16:56.603Z,2.52
2019-04-28T20:19:27.134Z,2.57
2019-04-28T20:22:00.202Z,2.52
2019-04-28T20:24:30.536Z,2.34
2019-04-28T20:27:00.831Z,2.18
2019-04-28T20:29:31.101Z,2.02
2019-04-28T20:32:01.658Z,2.02
2019-04-28T20:34:33.097Z,1.97
2019-04-28T20:37:12.956Z,1.91
2019-04-28T20:39:45.115Z,1.97
2019-04-28T20:42:33.220Z,1.95
2019-04-28T20:45:03.737Z,1.97
2019-04-28T20:47:37.138Z,1.83
2019-04-28T20:50:09.120Z,1.86
2019-04-28T20:52:39.411Z,1.98
2019-04-28T20:55:11.012Z,2.06
2019-04-28T20:57:41.677Z,1.87
2019-04-28T21:00:12.002Z,1.79
2019-04-28T21:02:42.533Z,1.68
2019-04-28T21:05:14.047Z,1.67
2019-04-28T21:07:45.172Z,1.68
2019-04-28T21:10:16.724Z,1.60
2019-04-28T21:12:47.099Z,1.52
2019-04-28T21:15:18.289Z,1.32
2019-04-28T21:17:48.716Z,1.22
2019-04-28T21:20:19.070Z,1.15
2019-04-28T21:22:49.386Z,1.07
2019-04-28T21:25:21.107Z,1.01
2019-04-28T21:27:54.628Z,1.11
2019-04-28T21:30:26.386Z,1.25
2019-04-28T21:32:56.847Z,1.21
2019-04-28T21:35:34.386Z,1.17
2019-04-28T21:38:04.686Z,1.11
2019-04-28T21:40:38.397Z,1.04
2019-04-28T21:43:18.163Z,1.18
2019-04-28T21:45:58.619Z,1.27
2019-04-28T21:48:36.458Z,1.08
2019-04-28T21:51:07.074Z,0.76
2019-04-28T21:53:37.407Z,0.59
2019-04-28T21:56:07.661Z,0.69
2019-04-28T21:58:38.033Z,0.68
2019-04-28T22:01:09.841Z,0.49
2019-04-28T22:03:40.131Z,0.26
2019-04-28T22:06:13.131Z,0.39
2019-04-28T22:08:44.023Z,0.50
2019-04-28T22:11:14.437Z,0.68
2019-04-28T22:13:46.140Z,0.76
2019-04-28T22:16:16.603Z,0.78
2019-04-28T22:18:46.945Z,0.78
2019-04-28T22:21:18.200Z,0.60
2019-04-28T22:24:07.116Z,0.39
2019-04-28T22:26:49.560Z,0.37
2019-04-28T22:29:19.892Z,0.39
2019-04-28T22:31:50.262Z,0.04
2019-04-28T22:34:20.598Z,0.04
2019-04-28T22:36:52.074Z,-0.25
2019-04-28T22:39:22.417Z,-0.26
2019-04-28T22:41:52.779Z,-0.12
2019-04-28T22:44:25.923Z,-0.11
2019-04-28T22:46:56.231Z,-0.07
2019-04-28T22:49:28.493Z,-0.21
2019-04-28T22:52:01.074Z,-0.34
2019-04-28T22:54:53.698Z,-0.25
2019-04-28T22:57:32.500Z,-0.25
2019-04-28T23:00:03.590Z,-0.35
2019-04-28T23:02:34.270Z,-0.35
2019-04-28T23:05:07.460Z,-0.25
2019-04-28T23:07:37.745Z,-0.39
2019-04-28T23:10:09.747Z,-0.36
2019-04-28T23:12:44.233Z,-0.43
2019-04-28T23:15:14.718Z,-0.50
2019-04-28T23:17:45.626Z,-0.92
2019-04-28T23:20:16.572Z,-0.92
2019-04-28T23:22:49.879Z,-1.00
2019-04-28T23:25:20.167Z,-1.07
2019-04-28T23:27:50.482Z,-1.05
2019-04-28T23:30:45.163Z,-0.96
2019-04-28T23:33:15.585Z,-0.90
2019-04-28T23:35:45.919Z,-0.82
2019-04-28T23:38:19.289Z,-0.76
2019-04-28T23:41:08.127Z,-0.74
2019-04-28T23:43:38.486Z,-0.78
2019-04-28T23:46:08.785Z,-0.78
2019-04-28T23:48:39.105Z,-0.88
2019-04-28T23:51:17.384Z,-1.06
2019-04-28T23:53:58.769Z,-1.11
2019-04-28T23:56:29.109Z,-1.28
2019-04-28T23:58:59.742Z,-1.43
